Time,TemperatureF,DewpointF,PressureIn,WindDirection,WindDirectionDegrees,WindSpeedMPH,WindSpeedGustMPH,Humidity,HourlyPrecipIn,Conditions,Clouds,dailyrainin,SoftwareType,DateUTC
2018-01-18 00:12:00,45.6,43.0,29.48,SW,233,4.0,17.0,90,0.08,,,0.02,weatherlink.com 1.10,2018-01-18 00:12:00,
2018-01-18 00:27:00,46.5,44.0,29.46,SW,222,5.0,17.0,90,0.08,,,0.03,weatherlink.com 1.10,2018-01-18 00:27:00,
2018-01-18 00:42:00,47.1,44.0,29.44,SSW,194,5.0,16.0,89,0.08,,,0.06,weatherlink.com 1.10,2018-01-18 00:42:00,
2018-01-18 00:57:00,47.6,45.0,29.43,SSW,201,4.0,20.0,89,0.06,,,0.06,weatherlink.com 1.10,2018-01-18 00:57:00,
2018-01-18 01:12:00,48.2,45.0,29.41,SSW,208,12.0,17.0,89,0.04,,,0.06,weatherlink.com 1.10,2018-01-18 01:12:00,
2018-01-18 01:27:00,48.5,46.0,29.39,SW,224,10.0,20.0,89,0.02,,,0.06,weatherlink.com 1.10,2018-01-18 01:27:00,
2018-01-18 01:42:00,48.8,46.0,29.38,SW,219,1.0,17.0,89,0.00,,,0.06,weatherlink.com 1.10,2018-01-18 01:42:00,
2018-01-18 01:57:00,49.0,46.0,29.37,SW,218,12.0,21.0,89,0.00,,,0.06,weatherlink.com 1.10,2018-01-18 01:57:00,
2018-01-18 02:12:00,49.3,46.0,29.37,SW,230,11.0,23.0,88,0.00,,,0.06,weatherlink.com 1.10,2018-01-18 02:12:00,
2018-01-18 02:27:00,49.4,46.0,29.36,SSW,205,4.0,20.0,88,0.00,,,0.06,weatherlink.com 1.10,2018-01-18 02:27:00,
2018-01-18 02:42:00,49.7,46.0,29.35,WNW,290,2.0,25.0,88,0.00,,,0.06,weatherlink.com 1.10,2018-01-18 02:42:00,
2018-01-18 02:57:00,50.1,46.0,29.35,WNW,303,0.0,16.0,87,0.00,,,0.06,weatherlink.com 1.10,2018-01-18 02:57:00,
2018-01-18 03:13:00,50.2,47.0,29.33,SW,229,4.0,16.0,87,0.00,,,0.06,weatherlink.com 1.10,2018-01-18 03:13:00,
2018-01-18 03:28:00,50.5,47.0,29.33,WSW,252,12.0,16.0,87,0.00,,,0.06,weatherlink.com 1.10,2018-01-18 03:28:00,
2018-01-18 03:43:00,50.8,47.0,29.33,ESE,115,4.0,23.0,86,0.00,,,0.06,weatherlink.com 1.10,2018-01-18 03:43:00,
2018-01-18 03:58:00,51.4,46.0,29.33,SW,231,7.0,26.0,83,0.00,,,0.06,weatherlink.com 1.10,2018-01-18 03:58:00,
2018-01-18 04:13:00,51.5,47.0,29.33,South,191,4.0,22.0,83,0.00,,,0.06,weatherlink.com 1.10,2018-01-18 04:13:00,
2018-01-18 04:28:00,51.5,46.0,29.33,SE,137,5.0,19.0,81,0.00,,,0.06,weatherlink.com 1.10,2018-01-18 04:28:00,
2018-01-18 04:43:00,51.9,44.0,29.34,West,276,10.0,29.0,75,0.00,,,0.06,weatherlink.com 1.10,2018-01-18 04:43:00,
2018-01-18 04:58:00,51.1,41.0,29.35,NW,316,8.0,28.0,69,0.00,,,0.06,weatherlink.com 1.10,2018-01-18 04:58:00,
2018-01-18 05:13:00,50.7,41.0,29.37,WSW,246,13.0,36.0,70,0.00,,,0.06,weatherlink.com 1.10,2018-01-18 05:13:00,
2018-01-18 05:28:00,50.2,41.0,29.38,SSW,200,7.0,31.0,70,0.00,,,0.06,weatherlink.com 1.10,2018-01-18 05:28:00,
2018-01-18 05:43:00,49.6,40.0,29.40,ESE,117,5.0,36.0,69,0.00,,,0.06,weatherlink.com 1.10,2018-01-18 05:43:00,
2018-01-18 05:58:00,49.0,40.0,29.41,SW,219,6.0,23.0,70,0.00,,,0.06,weatherlink.com 1.10,2018-01-18 05:58:00,
2018-01-18 06:13:00,48.4,40.0,29.43,South,190,10.0,35.0,72,0.00,,,0.06,weatherlink.com 1.10,2018-01-18 06:13:00,
2018-01-18 06:28:00,47.8,40.0,29.44,WSW,248,10.0,28.0,73,0.00,,,0.06,weatherlink.com 1.10,2018-01-18 06:28:00,
2018-01-18 06:43:00,47.2,39.0,29.45,West,273,14.0,26.0,74,0.00,,,0.06,weatherlink.com 1.10,2018-01-18 06:43:00,
2018-01-18 06:58:00,46.7,39.0,29.47,West,273,1.0,29.0,74,0.00,,,0.06,weatherlink.com 1.10,2018-01-18 06:58:00,
2018-01-18 07:13:00,46.2,38.0,29.48,SW,229,7.0,16.0,74,0.00,,,0.06,weatherlink.com 1.10,2018-01-18 07:13:00,
2018-01-18 07:28:00,45.8,37.0,29.50,WNW,300,4.0,20.0,71,0.00,,,0.06,weatherlink.com 1.10,2018-01-18 07:28:00,
2018-01-18 07:43:00,45.5,36.0,29.51,SE,125,4.0,30.0,70,0.00,,,0.06,weatherlink.com 1.10,2018-01-18 07:43:00,
2018-01-18 07:58:00,45.0,36.0,29.52,WSW,237,0.0,16.0,72,0.00,,,0.06,weatherlink.com 1.10,2018-01-18 07:58:00,
2018-01-18 08:13:00,44.6,36.0,29.54,WNW,283,13.0,18.0,73,0.00,,,0.06,weatherlink.com 1.10,2018-01-18 08:13:00,
2018-01-18 08:28:00,44.4,36.0,29.55,West,276,4.0,12.0,73,0.00,,,0.06,weatherlink.com 1.10,2018-01-18 08:28:00,
2018-01-18 08:43:00,44.4,36.0,29.56,WNW,299,13.0,20.0,73,0.00,,,0.06,weatherlink.com 1.10,2018-01-18 08:43:00,
2018-01-18 08:58:00,44.3,36.0,29.58,West,280,1.0,15.0,73,0.00,,,0.06,weatherlink.com 1.10,2018-01-18 08:58:00,
2018-01-18 09:13:00,44.4,36.0,29.58,WNW,295,2.0,12.0,73,0.00,,,0.06,weatherlink.com 1.10,2018-01-18 09:13:00,
2018-01-18 09:28:00,44.6,36.0,29.59,WNW,290,0.0,14.0,72,0.00,,,0.06,weatherlink.com 1.10,2018-01-18 09:28:00,
2018-01-18 09:44:00,44.7,37.0,29.60,SSW,203,1.0,13.0,74,0.00,,,0.06,weatherlink.com 1.10,2018-01-18 09:44:00,
2018-01-18 09:59:00,45.1,38.0,29.60,SW,226,0.0,13.0,75,0.00,,,0.06,weatherlink.com 1.10,2018-01-18 09:59:00,
2018-01-18 10:14:00,45.3,37.0,29.61,WNW,284,1.0,12.0,74,0.00,,,0.06,weatherlink.com 1.10,2018-01-18 10:14:00,
2018-01-18 10:29:00,45.8,38.0,29.60,WNW,301,4.0,13.0,74,0.00,,,0.06,weatherlink.com 1.10,2018-01-18 10:29:00,
2018-01-18 10:44:00,46.0,39.0,29.61,SSW,197,7.0,11.0,75,0.00,,,0.06,weatherlink.com 1.10,2018-01-18 10:44:00,
2018-01-18 10:59:00,46.3,39.0,29.61,WSW,253,2.0,13.0,75,0.00,,,0.06,weatherlink.com 1.10,2018-01-18 10:59:00,
2018-01-18 11:14:00,46.5,38.0,29.61,West,261,1.0,17.0,73,0.00,,,0.06,weatherlink.com 1.10,2018-01-18 11:14:00,
2018-01-18 11:29:00,46.8,38.0,29.61,NW,319,4.0,12.0,72,0.00,,,0.06,weatherlink.com 1.10,2018-01-18 11:29:00,
2018-01-18 11:44:00,46.8,38.0,29.61,West,276,4.0,16.0,72,0.00,,,0.06,weatherlink.com 1.10,2018-01-18 11:44:00,
2018-01-18 11:59:00,47.3,39.0,29.60,West,280,4.0,16.0,72,0.00,,,0.06,weatherlink.com 1.10,2018-01-18 11:59:00,
2018-01-18 12:14:00,48.2,39.0,29.60,WNW,300,4.0,16.0,71,0.00,,,0.06,weatherlink.com 1.10,2018-01-18 12:14:00,
2018-01-18 12:29:00,48.2,40.0,29.60,SW,236,4.0,10.0,72,0.00,,,0.06,weatherlink.com 1.10,2018-01-18 12:29:00,
2018-01-18 12:44:00,48.2,39.0,29.59,West,276,6.0,15.0,71,0.00,,,0.06,weatherlink.com 1.10,2018-01-18 12:44:00,
2018-01-18 12:59:00,48.4,39.0,29.59,WSW,255,4.0,15.0,71,0.00,,,0.06,weatherlink.com 1.10,2018-01-18 12:59:00,
2018-01-18 13:14:00,48.0,39.0,29.59,WSW,240,10.0,22.0,71,0.00,,,0.06,weatherlink.com 1.10,2018-01-18 13:14:00,
2018-01-18 13:29:00,47.7,39.0,29.59,SW,222,6.0,16.0,71,0.00,,,0.06,weatherlink.com 1.10,2018-01-18 13:29:00,
2018-01-18 13:44:00,47.5,39.0,29.59,West,279,5.0,12.0,72,0.00,,,0.06,weatherlink.com 1.10,2018-01-18 13:44:00,
2018-01-18 13:59:00,47.4,39.0,29.59,WNW,284,4.0,12.0,72,0.00,,,0.06,weatherlink.com 1.10,2018-01-18 13:59:00,
2018-01-18 14:14:00,47.2,39.0,29.60,NE,39,4.0,15.0,73,0.00,,,0.06,weatherlink.com 1.10,2018-01-18 14:14:00,
2018-01-18 14:29:00,47.0,39.0,29.59,West,260,8.0,13.0,73,0.00,,,0.06,weatherlink.com 1.10,2018-01-18 14:29:00,
2018-01-18 14:44:00,47.1,39.0,29.59,SSE,159,0.0,7.0,74,0.00,,,0.06,weatherlink.com 1.10,2018-01-18 14:44:00,
2018-01-18 14:59:00,47.0,39.0,29.59,West,265,0.0,12.0,74,0.00,,,0.06,weatherlink.com 1.10,2018-01-18 14:59:00,